createdAt,value
2022-10-17T00:01:40.860Z,34.42
2022-10-17T00:04:44.086Z,33.39
2022-10-17T00:07:48.559Z,33.76
2022-10-17T00:10:59.590Z,35.01
2022-10-17T00:14:03.876Z,34.55
2022-10-17T00:17:07.173Z,34.43
2022-10-17T00:20:11.398Z,35.10
2022-10-17T00:23:15.894Z,34.41
2022-10-17T00:26:19.453Z,34.55
2022-10-17T00:29:22.571Z,32.74
2022-10-17T00:32:25.892Z,34.13
2022-10-17T00:35:29.110Z,37.22
2022-10-17T00:38:33.718Z,37.52
2022-10-17T00:41:36.831Z,52.14
2022-10-17T00:45:03.659Z,54.93
2022-10-17T00:48:10.672Z,57.16
2022-10-17T00:51:13.787Z,57.44
2022-10-17T00:54:22.107Z,57.92
2022-10-17T00:57:27.069Z,58.20
2022-10-17T01:00:30.575Z,63.85
2022-10-17T01:03:34.989Z,64.26
2022-10-17T01:06:38.098Z,67.66
2022-10-17T01:09:46.087Z,68.73
2022-10-17T01:13:01.455Z,67.80
2022-10-17T01:16:12.631Z,68.56
2022-10-17T01:19:57.552Z,67.41
2022-10-17T01:23:19.228Z,67.30
2022-10-17T01:26:34.807Z,67.92
2022-10-17T01:29:55.195Z,68.12
2022-10-17T01:33:07.610Z,68.31
2022-10-17T01:36:16.448Z,68.14
2022-10-17T01:39:32.530Z,67.96
2022-10-17T01:42:43.551Z,67.95
2022-10-17T01:45:51.149Z,67.42
2022-10-17T01:48:59.102Z,66.78
2022-10-17T01:52:05.034Z,66.35
2022-10-17T01:55:11.429Z,67.38
2022-10-17T01:58:20.249Z,65.90
2022-10-17T02:01:25.374Z,66.29
2022-10-17T02:04:30.586Z,67.02
2022-10-17T02:07:33.814Z,66.45
2022-10-17T02:10:43.305Z,65.58
2022-10-17T02:14:20.536Z,65.80
2022-10-17T02:17:35.768Z,66.21
2022-10-17T02:20:50.562Z,65.87
2022-10-17T02:23:57.375Z,65.88
2022-10-17T02:27:07.681Z,64.14
2022-10-17T02:30:15.603Z,66.56
2022-10-17T02:33:24.402Z,65.84
2022-10-17T02:36:33.900Z,64.18
2022-10-17T02:39:39.883Z,64.21
2022-10-17T02:42:45.907Z,67.56
2022-10-17T02:45:49.902Z,67.39
2022-10-17T02:48:56.029Z,65.15
2022-10-17T02:52:05.411Z,65.60
2022-10-17T02:55:14.598Z,64.05
2022-10-17T02:58:20.820Z,65.80
2022-10-17T03:01:25.218Z,65.62
2022-10-17T03:04:29.066Z,67.25
2022-10-17T03:07:33.612Z,67.63
2022-10-17T03:10:37.132Z,68.42
2022-10-17T03:13:40.542Z,69.28
2022-10-17T03:16:44.096Z,69.15
2022-10-17T03:19:47.247Z,69.11
2022-10-17T03:22:52.525Z,64.34
2022-10-17T03:25:55.671Z,58.88
2022-10-17T03:28:59.064Z,62.86
2022-10-17T03:34:28.495Z,68.64
2022-10-17T03:37:31.799Z,71.62
2022-10-17T03:40:35.894Z,71.66
2022-10-17T03:43:40.833Z,70.39
2022-10-17T03:46:44.863Z,70.83
2022-10-17T03:49:49.490Z,68.73
2022-10-17T03:52:52.925Z,68.18
2022-10-17T03:55:56.842Z,68.16
2022-10-17T03:59:00.277Z,67.77
2022-10-17T04:02:05.233Z,69.30
2022-10-17T04:05:10.657Z,68.91
2022-10-17T04:08:14.027Z,69.33
2022-10-17T04:11:39.199Z,69.75
2022-10-17T04:14:42.357Z,66.87
2022-10-17T04:17:48.429Z,68.04
2022-10-17T04:20:53.170Z,68.00
2022-10-17T04:23:57.792Z,68.22
2022-10-17T04:27:18.942Z,67.99
2022-10-17T04:30:24.282Z,69.09
2022-10-17T04:33:30.010Z,70.20
2022-10-17T04:36:34.766Z,72.00
2022-10-17T04:39:38.611Z,70.75
2022-10-17T04:42:41.807Z,69.10
2022-10-17T04:45:47.116Z,69.44
2022-10-17T04:48:50.983Z,71.24
2022-10-17T04:51:55.666Z,71.15
2022-10-17T04:55:13.940Z,72.07
2022-10-17T04:58:17.147Z,70.54
2022-10-17T05:01:22.319Z,70.04
2022-10-17T05:04:29.163Z,71.01
2022-10-17T05:07:33.784Z,71.54
2022-10-17T05:10:46.678Z,71.54
2022-10-17T05:13:55.426Z,81.14
2022-10-17T05:16:58.725Z,82.49
2022-10-17T05:20:02.380Z,81.45
2022-10-17T05:23:08.910Z,81.68
2022-10-17T05:26:16.828Z,81.77
2022-10-17T05:29:20.266Z,81.49
2022-10-17T05:32:29.121Z,81.89
2022-10-17T05:35:32.472Z,81.90
2022-10-17T05:38:37.308Z,82.23
2022-10-17T05:41:41.593Z,82.36
2022-10-17T05:44:46.960Z,82.29
2022-10-17T05:47:52.132Z,81.77
2022-10-17T05:51:00.453Z,80.69
2022-10-17T05:54:06.577Z,81.06
2022-10-17T05:57:11.676Z,81.09
2022-10-17T06:00:16.329Z,82.39
2022-10-17T06:03:21.042Z,82.47
2022-10-17T06:06:24.498Z,82.33
2022-10-17T06:09:29.523Z,82.42
2022-10-17T06:12:32.949Z,81.86
2022-10-17T06:15:36.584Z,81.63
2022-10-17T06:18:43.525Z,81.67
2022-10-17T06:21:47.656Z,81.50
2022-10-17T06:24:58.580Z,81.08
2022-10-17T06:28:02.291Z,80.60
2022-10-17T06:31:07.316Z,80.39
2022-10-17T06:34:10.468Z,80.58
2022-10-17T06:37:15.263Z,80.70
2022-10-17T06:40:21.284Z,80.97
2022-10-17T06:43:27.857Z,81.45
2022-10-17T06:46:51.168Z,81.80
2022-10-17T06:49:54.742Z,81.74
2022-10-17T06:53:21.776Z,81.98
2022-10-17T06:56:49.332Z,82.49
2022-10-17T06:59:58.614Z,82.87
2022-10-17T07:03:08.382Z,82.68
2022-10-17T07:06:11.817Z,82.50
2022-10-17T07:09:17.067Z,80.74
2022-10-17T07:12:22.403Z,77.86
2022-10-17T07:15:27.794Z,74.16
2022-10-17T07:18:30.958Z,71.04
2022-10-17T07:21:36.696Z,64.90
2022-10-17T07:24:43.175Z,55.53
2022-10-17T07:28:06.114Z,45.52
2022-10-17T07:31:13.888Z,65.67
2022-10-17T07:34:17.792Z,97.79
2022-10-17T07:37:21.496Z,100.00
2022-10-17T07:40:29.749Z,100.00
2022-10-17T07:43:36.152Z,100.00
2022-10-17T07:46:39.713Z,100.00
2022-10-17T07:49:44.167Z,100.00
2022-10-17T07:52:47.423Z,100.00
2022-10-17T07:55:51.371Z,100.00
2022-10-17T08:02:08.039Z,100.00
2022-10-17T08:05:11.198Z,100.00
2022-10-17T08:08:14.345Z,100.00
2022-10-17T08:11:17.495Z,100.00
2022-10-17T08:14:21.954Z,100.00
2022-10-17T08:17:25.158Z,100.00
2022-10-17T08:20:29.792Z,100.00
2022-10-17T08:23:33.256Z,100.00
2022-10-17T08:26:40.643Z,100.00
2022-10-17T08:29:48.776Z,100.00
2022-10-17T08:32:51.933Z,100.00
2022-10-17T08:35:55.007Z,100.00
2022-10-17T08:38:58.335Z,100.00
2022-10-17T08:42:20.654Z,100.00
2022-10-17T08:45:33.744Z,100.00
2022-10-17T08:48:44.079Z,100.00
2022-10-17T08:51:56.587Z,100.00
2022-10-17T08:54:59.831Z,100.00
2022-10-17T08:58:03.015Z,100.00
2022-10-17T09:01:18.610Z,100.00
2022-10-17T09:05:01.573Z,100.00
2022-10-17T09:08:15.572Z,100.00
2022-10-17T09:11:38.605Z,100.00
2022-10-17T09:15:17.388Z,100.00
2022-10-17T09:18:27.726Z,100.00
2022-10-17T09:21:41.156Z,100.00
2022-10-17T09:24:47.583Z,100.00
2022-10-17T09:27:54.933Z,100.00
2022-10-17T09:34:32.499Z,100.00
2022-10-17T09:37:35.722Z,100.00
2022-10-17T09:40:38.952Z,100.00
2022-10-17T09:43:42.150Z,100.00
2022-10-17T09:46:58.037Z,100.00
2022-10-17T09:50:02.653Z,100.00
2022-10-17T09:53:14.850Z,100.00
2022-10-17T09:56:20.316Z,100.00
2022-10-17T09:59:33.148Z,100.00
2022-10-17T10:02:36.627Z,100.00
2022-10-17T10:05:41.454Z,100.00
2022-10-17T10:08:55.413Z,100.00
2022-10-17T10:12:00.361Z,100.00
2022-10-17T10:15:23.902Z,100.00
2022-10-17T10:18:35.090Z,100.00
2022-10-17T10:21:57.049Z,100.00
2022-10-17T10:25:16.249Z,100.00
2022-10-17T10:28:19.813Z,100.00
2022-10-17T10:31:35.299Z,100.00
2022-10-17T10:34:42.327Z,100.00
2022-10-17T10:37:51.886Z,100.00
2022-10-17T10:40:57.413Z,100.00
2022-10-17T10:44:00.623Z,100.00
2022-10-17T10:47:09.125Z,100.00
2022-10-17T10:50:25.769Z,100.00
2022-10-17T10:53:45.337Z,100.00
2022-10-17T10:56:53.767Z,100.00
2022-10-17T11:00:03.690Z,100.00
2022-10-17T11:03:20.425Z,100.00
2022-10-17T11:06:28.827Z,100.00
2022-10-17T11:09:46.551Z,100.00
2022-10-17T11:12:52.574Z,100.00
2022-10-17T11:16:02.276Z,100.00
2022-10-17T11:19:13.970Z,100.00
2022-10-17T11:22:24.066Z,100.00
2022-10-17T11:25:35.556Z,100.00
2022-10-17T11:28:39.207Z,100.00
2022-10-17T11:31:46.378Z,100.00
2022-10-17T11:34:52.528Z,100.00
2022-10-17T11:38:07.158Z,100.00
2022-10-17T11:41:15.174Z,100.00
2022-10-17T11:44:25.837Z,100.00
2022-10-17T11:47:37.833Z,100.00
2022-10-17T11:54:15.212Z,100.00
2022-10-17T11:57:37.336Z,100.00
2022-10-17T12:00:54.105Z,100.00
2022-10-17T12:04:08.991Z,100.00
2022-10-17T12:07:19.444Z,100.00
2022-10-17T12:10:35.181Z,100.00
2022-10-17T12:13:51.927Z,100.00
2022-10-17T12:16:55.160Z,100.00
2022-10-17T12:20:39.759Z,100.00
2022-10-17T12:23:53.115Z,100.00
2022-10-17T12:26:57.212Z,100.00
2022-10-17T12:30:05.382Z,100.00
2022-10-17T12:33:22.290Z,100.00
2022-10-17T12:36:49.987Z,100.00
2022-10-17T12:39:53.103Z,100.00
2022-10-17T12:42:56.271Z,100.00
2022-10-17T12:46:02.140Z,100.00
2022-10-17T12:49:20.608Z,100.00
2022-10-17T12:52:46.246Z,100.00
2022-10-17T12:55:51.840Z,100.00
2022-10-17T12:58:55.025Z,100.00
2022-10-17T13:02:02.932Z,100.00
2022-10-17T13:05:12.283Z,100.00
2022-10-17T13:08:19.807Z,100.00
2022-10-17T13:11:26.301Z,100.00
2022-10-17T13:14:30.699Z,100.00
2022-10-17T13:17:37.990Z,100.00
2022-10-17T13:20:43.774Z,100.00
2022-10-17T13:23:49.265Z,100.00
2022-10-17T13:26:52.348Z,100.00
2022-10-17T13:29:57.349Z,100.00
2022-10-17T13:33:02.996Z,100.00
2022-10-17T13:36:16.127Z,100.00
2022-10-17T13:39:52.394Z,100.00
2022-10-17T13:42:56.927Z,100.00
2022-10-17T13:46:25.444Z,100.00
2022-10-17T13:49:44.428Z,100.00
2022-10-17T13:53:06.182Z,100.00
2022-10-17T13:56:28.328Z,100.00
2022-10-17T13:59:41.362Z,100.00
2022-10-17T14:02:46.889Z,100.00
2022-10-17T14:06:12.152Z,100.00
2022-10-17T14:09:23.400Z,100.00
2022-10-17T14:12:29.572Z,100.00
2022-10-17T14:15:37.146Z,100.00
2022-10-17T14:18:44.718Z,100.00
2022-10-17T14:21:53.871Z,100.00
2022-10-17T14:25:02.182Z,100.00
2022-10-17T14:28:20.915Z,100.00
2022-10-17T14:31:37.891Z,100.00
2022-10-17T14:34:46.101Z,100.00
2022-10-17T14:37:53.059Z,100.00
2022-10-17T14:41:09.746Z,100.00
2022-10-17T14:44:26.695Z,100.00
2022-10-17T14:47:42.675Z,100.00
2022-10-17T14:51:12.948Z,100.00
2022-10-17T14:54:24.760Z,100.00
2022-10-17T14:57:43.815Z,100.00
2022-10-17T15:00:46.928Z,100.00
2022-10-17T15:03:50.108Z,100.00
2022-10-17T15:06:55.461Z,100.00
2022-10-17T15:10:00.178Z,100.00
2022-10-17T15:13:26.723Z,100.00
2022-10-17T15:16:32.609Z,100.00
2022-10-17T15:19:35.687Z,100.00
2022-10-17T15:22:38.775Z,100.00
2022-10-17T15:25:43.373Z,100.00
2022-10-17T15:28:47.586Z,100.00
2022-10-17T15:34:28.885Z,100.00
2022-10-17T15:37:35.076Z,100.00
2022-10-17T15:40:38.194Z,100.00
2022-10-17T15:43:41.309Z,100.00
2022-10-17T15:46:45.936Z,100.00
2022-10-17T15:49:50.422Z,100.00
2022-10-17T15:52:53.684Z,100.00
2022-10-17T15:55:56.881Z,100.00
2022-10-17T15:59:00.093Z,100.00
2022-10-17T16:02:03.164Z,100.00
2022-10-17T16:05:14.834Z,100.00
2022-10-17T16:08:17.967Z,100.00
2022-10-17T16:11:28.853Z,100.00
2022-10-17T16:14:32.423Z,100.00
2022-10-17T16:17:35.593Z,100.00
2022-10-17T16:20:40.490Z,100.00
2022-10-17T16:23:44.195Z,100.00
2022-10-17T16:26:47.558Z,100.00
2022-10-17T16:29:50.705Z,100.00
2022-10-17T16:32:54.722Z,100.00
2022-10-17T16:35:59.196Z,100.00
2022-10-17T16:39:02.474Z,100.00
2022-10-17T16:42:05.694Z,100.00
2022-10-17T16:45:09.699Z,100.00
2022-10-17T16:48:13.255Z,100.00
2022-10-17T16:51:19.160Z,100.00
2022-10-17T16:54:22.322Z,100.00
2022-10-17T16:57:25.560Z,100.00
2022-10-17T17:00:28.832Z,100.00
2022-10-17T17:03:32.032Z,100.00
2022-10-17T17:06:37.977Z,100.00
2022-10-17T17:09:41.172Z,100.00
2022-10-17T17:12:44.333Z,100.00
2022-10-17T17:15:47.766Z,100.00
2022-10-17T17:18:55.222Z,100.00
2022-10-17T17:21:59.838Z,100.00
2022-10-17T17:25:03.016Z,100.00
2022-10-17T17:28:06.941Z,100.00
2022-10-17T17:31:12.225Z,100.00
2022-10-17T17:34:18.070Z,100.00
2022-10-17T17:37:23.446Z,100.00
2022-10-17T17:40:26.767Z,100.00
2022-10-17T17:43:31.118Z,100.00
2022-10-17T17:46:34.884Z,100.00
2022-10-17T17:49:38.122Z,100.00
2022-10-17T17:52:45.513Z,100.00
2022-10-17T17:55:48.815Z,100.00
2022-10-17T17:58:55.381Z,100.00
2022-10-17T18:01:58.872Z,100.00
2022-10-17T18:05:02.123Z,100.00
2022-10-17T18:08:07.377Z,100.00
2022-10-17T18:11:10.714Z,100.00
2022-10-17T18:14:14.198Z,100.00
2022-10-17T18:17:17.346Z,100.00
2022-10-17T18:20:20.485Z,100.00
2022-10-17T18:23:25.016Z,100.00
2022-10-17T18:26:28.495Z,100.00
2022-10-17T18:29:32.746Z,100.00
2022-10-17T18:32:36.347Z,100.00
2022-10-17T18:35:39.450Z,100.00
2022-10-17T18:38:44.499Z,100.00
2022-10-17T18:41:48.225Z,100.00
2022-10-17T18:44:51.410Z,100.00
2022-10-17T18:47:54.698Z,100.00
2022-10-17T18:50:57.820Z,100.00
2022-10-17T18:54:03.521Z,100.00
2022-10-17T18:57:07.158Z,100.00
2022-10-17T19:00:11.751Z,100.00
2022-10-17T19:03:15.216Z,100.00
2022-10-17T19:06:20.413Z,100.00
2022-10-17T19:09:25.075Z,100.00
2022-10-17T19:12:28.847Z,100.00
2022-10-17T19:15:32.358Z,100.00
2022-10-17T19:18:36.385Z,100.00
2022-10-17T19:21:39.794Z,100.00
2022-10-17T19:24:44.391Z,85.40
2022-10-17T19:27:47.655Z,78.79
2022-10-17T19:30:51.214Z,78.22
2022-10-17T19:33:55.667Z,75.43
2022-10-17T19:36:58.983Z,66.67
2022-10-17T19:40:04.010Z,75.70
2022-10-17T19:43:07.190Z,72.25
2022-10-17T19:46:12.806Z,71.36
2022-10-17T19:49:17.703Z,70.01
2022-10-17T19:52:20.848Z,69.24
2022-10-17T19:55:25.424Z,71.50
2022-10-17T19:58:29.495Z,75.43
2022-10-17T20:01:35.016Z,68.75
2022-10-17T20:04:49.502Z,67.21
2022-10-17T20:08:01.314Z,50.99
2022-10-17T20:11:08.007Z,29.10
2022-10-17T20:14:11.172Z,23.64
2022-10-17T20:17:14.334Z,22.09
2022-10-17T20:20:17.781Z,22.80
2022-10-17T20:23:21.004Z,52.25
2022-10-17T20:26:37.783Z,57.41
2022-10-17T20:29:42.084Z,57.53
2022-10-17T20:32:45.229Z,59.57
2022-10-17T20:35:48.429Z,59.08
2022-10-17T20:38:54.309Z,59.46
2022-10-17T20:41:59.396Z,58.43
2022-10-17T20:45:03.014Z,57.79
2022-10-17T20:48:07.302Z,57.56
2022-10-17T20:51:11.664Z,58.02
2022-10-17T20:54:15.003Z,60.55
2022-10-17T20:57:19.687Z,58.81
2022-10-17T21:00:23.426Z,58.71
2022-10-17T21:03:26.678Z,58.71
2022-10-17T21:06:29.775Z,54.35
2022-10-17T21:09:33.116Z,50.82
2022-10-17T21:12:53.381Z,51.22
2022-10-17T21:16:04.608Z,56.16
2022-10-17T21:19:07.911Z,54.16
2022-10-17T21:22:11.126Z,58.86
2022-10-17T21:25:14.539Z,59.92
2022-10-17T21:28:19.024Z,61.01
2022-10-17T21:34:28.769Z,60.50
2022-10-17T21:37:32.096Z,63.23
2022-10-17T21:40:35.986Z,60.32
2022-10-17T21:43:39.830Z,60.77
2022-10-17T21:46:43.422Z,59.82
2022-10-17T21:49:48.132Z,60.97
2022-10-17T21:52:51.317Z,61.58
2022-10-17T21:55:54.752Z,61.69
2022-10-17T21:58:59.532Z,61.83
2022-10-17T22:02:02.996Z,61.13
2022-10-17T22:05:08.227Z,62.52
2022-10-17T22:08:11.384Z,61.68
2022-10-17T22:11:17.837Z,61.65
2022-10-17T22:14:22.948Z,60.01
2022-10-17T22:17:26.161Z,60.71
2022-10-17T22:20:31.050Z,62.55
2022-10-17T22:23:35.872Z,63.22
2022-10-17T22:26:39.328Z,66.12
2022-10-17T22:29:42.593Z,65.45
2022-10-17T22:32:45.989Z,66.44
2022-10-17T22:35:50.915Z,67.12
2022-10-17T22:38:54.174Z,69.39
2022-10-17T22:41:57.674Z,68.05
2022-10-17T22:45:01.227Z,68.01
2022-10-17T22:48:05.817Z,68.45
2022-10-17T22:51:10.429Z,67.69
2022-10-17T22:54:13.900Z,68.04
2022-10-17T22:57:17.096Z,69.27
2022-10-17T23:00:20.670Z,69.78
2022-10-17T23:03:25.228Z,69.63
2022-10-17T23:06:30.112Z,69.92
2022-10-17T23:09:33.600Z,70.76
2022-10-17T23:12:36.879Z,70.01
2022-10-17T23:15:40.271Z,68.44
2022-10-17T23:18:44.335Z,68.29
2022-10-17T23:21:48.895Z,68.98
2022-10-17T23:24:52.270Z,69.85
2022-10-17T23:27:56.331Z,70.20
2022-10-17T23:30:59.422Z,70.27
2022-10-17T23:34:02.640Z,70.41
2022-10-17T23:37:07.386Z,72.63
2022-10-17T23:40:12.150Z,73.00
2022-10-17T23:43:15.499Z,75.41
2022-10-17T23:46:19.282Z,75.66
2022-10-17T23:49:22.384Z,84.22
2022-10-17T23:52:27.105Z,84.46
2022-10-17T23:55:30.295Z,84.28
2022-10-17T23:58:33.771Z,84.08
